Time;durP1;ratioP1;P1;durP2;ratioP2;P2;SDS_P1;SDS_P2;PMS_P1;PMS_P2;Temp;Humidity;BMP_temperature;BMP_pressure;BME280_temperature;BME280_humidity;BME280_pressure;Samples;Min_cycle;Max_cycle;Signal;HPM_P1;HPM_P2
2023/08/01 00:09:33;;;;;;;2.50;0.87;;;;;;;;;;20934894;28;20301;-69
2023/08/01 00:19:36;;;;;;;1.77;0.97;;;;;;;;;;20945315;28;20288;-70
2023/08/01 00:29:38;;;;;;;1.77;0.90;;;;;;;;;;20966498;28;20227;-69
2023/08/01 00:39:40;;;;;;;1.57;0.90;;;;;;;;;;20949761;28;20218;-69
2023/08/01 00:49:42;;;;;;;3.43;1.17;;;19.60;99.90;;;;;;20948874;28;20231;-68
2023/08/01 00:59:44;;;;;;;2.50;0.70;;;;;;;;;;20913107;28;20280;-69
2023/08/01 01:09:46;;;;;;;1.67;0.83;;;;;;;;;;20931727;28;20227;-69
2023/08/01 01:19:48;;;;;;;1.27;0.70;;;;;;;;;;20928236;28;20229;-69
2023/08/01 01:29:50;;;;;;;1.17;0.63;;;;;;;;;;20938518;28;20796;-68
2023/08/01 01:39:52;;;;;;;1.73;0.80;;;;;;;;;;20930569;28;20210;-68
2023/08/01 01:49:53;;;;;;;2.10;0.80;;;;;;;;;;20913157;28;20288;-68
2023/08/01 01:59:55;;;;;;;2.07;1.10;;;;;;;;;;20913517;28;20842;-68
2023/08/01 02:09:57;;;;;;;2.00;0.87;;;;;;;;;;20930252;28;20257;-68
2023/08/01 02:19:59;;;;;;;1.10;0.80;;;;;;;;;;20943810;28;20235;-69
2023/08/01 02:30:01;;;;;;;1.60;0.90;;;;;;;;;;20943234;28;20602;-68
2023/08/01 02:40:07;;;;;;;1.20;0.83;;;;;;;;;;20974780;28;20235;-69
2023/08/01 02:50:09;;;;;;;1.20;0.87;;;;;;;;;;20932585;22;20304;-73
2023/08/01 03:00:12;;;;;;;3.00;0.90;;;;;;;;;;20818679;28;20228;-74
2023/08/01 03:10:14;;;;;;;1.73;0.60;;;;;;;;;;20830040;28;20658;-72
2023/08/01 03:20:16;;;;;;;1.50;0.87;;;;;;;;;;20857434;28;20242;-72
2023/08/01 03:30:19;;;;;;;1.07;0.60;;;;;;;;;;20843611;28;20227;-72
2023/08/01 03:40:22;;;;;;;1.27;0.60;;;;;;;;;;20837883;28;20215;-72
2023/08/01 03:50:24;;;;;;;1.30;0.80;;;;;;;;;;20806429;28;20244;-71
2023/08/01 04:00:32;;;;;;;2.30;0.80;;;;;;;;;;20825925;28;20733;-71
2023/08/01 04:10:34;;;;;;;1.27;0.77;;;;;;;;;;20835258;28;20285;-71
2023/08/01 04:20:36;;;;;;;2.60;0.90;;;;;;;;;;20816883;28;20282;-71
2023/08/01 04:30:38;;;;;;;1.40;0.70;;;;;;;;;;20813370;28;20275;-72
2023/08/01 04:40:39;;;;;;;1.77;0.70;;;;;;;;;;20814590;28;20231;-72
2023/08/01 04:50:41;;;;;;;1.30;0.53;;;;;;;;;;20812667;28;20264;-72
2023/08/01 05:00:43;;;;;;;2.17;1.00;;;19.40;99.90;;;;;;20811994;28;20237;-72
2023/08/01 05:10:46;;;;;;;2.57;1.07;;;;;;;;;;20811983;28;20274;-72
2023/08/01 05:20:48;;;;;;;2.70;1.53;;;;;;;;;;20812615;28;20248;-72
2023/08/01 05:30:49;;;;;;;1.77;0.90;;;;;;;;;;20839992;28;20228;-73
2023/08/01 05:40:51;;;;;;;1.63;0.90;;;;;;;;;;20816413;28;20214;-75
2023/08/01 05:50:55;;;;;;;2.83;1.40;;;;;;;;;;20825854;28;20645;-75
2023/08/01 06:00:56;;;;;;;2.67;1.30;;;;;;;;;;20826148;28;20262;-75
2023/08/01 06:10:58;;;;;;;1.80;1.00;;;;;;;;;;20833446;28;20214;-75
2023/08/01 06:21:00;;;;;;;1.87;1.00;;;;;;;;;;20826168;28;20215;-75
2023/08/01 06:31:03;;;;;;;1.20;0.80;;;;;;;;;;20826571;28;20239;-75
2023/08/01 06:41:04;;;;;;;1.43;0.80;;;;;;;;;;20827747;28;20286;-75
2023/08/01 06:51:06;;;;;;;1.93;0.90;;;;;;;;;;20833226;28;20555;-76
2023/08/01 07:01:07;;;;;;;1.70;0.70;;;;;;;;;;20852439;28;20261;-74
2023/08/01 07:11:09;;;;;;;1.63;0.70;;;;;;;;;;20825599;28;20222;-74
2023/08/01 07:21:12;;;;;;;1.07;0.60;;;;;;;;;;20821802;28;20285;-73
2023/08/01 07:31:13;;;;;;;1.23;0.57;;;;;;;;;;20820524;28;20211;-73
2023/08/01 07:41:15;;;;;;;0.53;0.40;;;;;;;;;;20822665;28;20753;-74
2023/08/01 07:51:17;;;;;;;1.27;0.57;;;;;;;;;;20821262;28;20220;-74
2023/08/01 08:01:19;;;;;;;1.13;0.63;;;;;;;;;;20820622;28;20224;-73
2023/08/01 08:11:20;;;;;;;0.47;0.40;;;;;;;;;;20827258;28;20705;-74
2023/08/01 08:21:22;;;;;;;0.20;0.20;;;;;;;;;;20827527;28;20221;-73
2023/08/01 08:31:24;;;;;;;0.50;0.30;;;;;;;;;;20818558;28;20220;-73
2023/08/01 08:41:28;;;;;;;0.50;0.30;;;;;;;;;;20830879;28;20228;-72
2023/08/01 08:51:29;;;;;;;0.47;0.30;;;;;;;;;;20890614;22;20569;-70
2023/08/01 09:01:32;;;;;;;1.03;0.30;;;20.90;99.90;;;;;;21015898;28;20270;-70
2023/08/01 09:11:51;;;;;;;0.30;0.30;;;21.60;99.90;;;;;;21015839;28;20299;-71
2023/08/01 09:21:53;;;;;;;0.20;0.20;;;;;;;;;;21021153;28;20234;-71
2023/08/01 09:31:55;;;;;;;0.20;0.20;;;;;;;;;;21048316;28;20234;-70
2023/08/01 09:42:01;;;;;;;0.50;0.30;;;;;;;;;;21003797;28;20275;-69
2023/08/01 09:52:03;;;;;;;0.20;0.20;;;;;;;;;;21027777;28;20589;-69
2023/08/01 10:02:05;;;;;;;0.50;0.30;;;;;;;;;;21003121;28;20241;-71
2023/08/01 10:12:08;;;;;;;0.47;0.27;;;;;;;;;;21030744;28;20771;-70
2023/08/01 10:22:10;;;;;;;1.00;0.40;;;;;;;;;;21028006;28;20223;-71
2023/08/01 10:32:12;;;;;;;0.30;0.30;;;;;;;;;;21012417;28;20694;-71
2023/08/01 10:42:14;;;;;;;0.40;0.30;;;;;;;;;;21026422;28;20220;-71
2023/08/01 10:52:19;;;;;;;0.50;0.28;;;;;;;;;;21023093;28;20786;-71
2023/08/01 11:02:26;;;;;;;0.32;0.30;;;22.40;99.90;;;;;;20978052;28;20269;-70
2023/08/01 11:12:28;;;;;;;0.60;0.50;;;;;;;;;;20990852;28;20248;-71
2023/08/01 11:22:30;;;;;;;0.35;0.22;;;;;;;;;;21022733;28;20242;-70
2023/08/01 11:32:36;;;;;;;0.50;0.35;;;22.90;99.90;;;;;;21040105;28;20204;-71
2023/08/01 11:42:38;;;;;;;0.50;0.40;;;;;;;;;;21021559;28;20219;-70
2023/08/01 11:52:40;;;;;;;0.45;0.30;;;;;;;;;;21001399;28;20242;-71
2023/08/01 12:02:42;;;;;;;0.88;0.40;;;;;;;;;;20998456;28;20216;-70
2023/08/01 12:12:48;;;;;;;1.07;0.50;;;22.80;99.90;;;;;;21014550;28;20268;-71
2023/08/01 12:22:50;;;;;;;1.05;0.43;;;;;;;;;;21030938;28;20208;-71
2023/08/01 12:32:53;;;;;;;0.80;0.40;;;;;;;;;;20991434;28;20232;-69
2023/08/01 12:42:54;;;;;;;4.80;0.88;;;;;;;;;;20961053;28;20232;-70
2023/08/01 12:52:56;;;;;;;1.55;0.60;;;;;;;;;;20983919;28;20497;-70
2023/08/01 13:02:58;;;;;;;0.80;0.40;;;;;;;;;;21015592;28;20684;-71
2023/08/01 13:13:00;;;;;;;0.70;0.40;;;;;;;;;;20989514;28;20588;-69
2023/08/01 13:23:03;;;;;;;0.95;0.47;;;;;;;;;;21013081;28;20228;-71
2023/08/01 13:33:05;;;;;;;0.60;0.30;;;;;;;;;;21028672;28;20213;-70
2023/08/01 13:43:06;;;;;;;1.15;0.50;;;;;;;;;;21011873;28;20220;-70
2023/08/01 13:53:10;;;;;;;0.30;0.30;;;;;;;;;;20993155;28;20694;-71
2023/08/01 14:03:12;;;;;;;0.22;0.22;;;;;;;;;;21010196;28;20669;-70
2023/08/01 14:13:14;;;;;;;0.82;0.40;;;;;;;;;;21024457;28;20216;-69
2023/08/01 14:23:16;;;;;;;0.73;0.40;;;;;;;;;;21025000;28;20214;-71
2023/08/01 14:33:20;;;;;;;0.50;0.40;;;;;;;;;;21024775;28;20268;-73
2023/08/01 14:43:22;;;;;;;0.85;0.40;;;;;;;;;;21023988;28;20225;-69
2023/08/01 14:53:24;;;;;;;0.82;0.40;;;;;;;;;;20989453;28;20654;-70
2023/08/01 15:03:26;;;;;;;0.68;0.40;;;;;;;;;;20983859;28;20225;-71
2023/08/01 15:13:28;;;;;;;0.57;0.40;;;;;;;;;;20999055;22;20232;-74
2023/08/01 15:23:30;;;;;;;0.80;0.50;;;;;;;;;;21029562;28;20226;-70
2023/08/01 15:33:35;;;;;;;0.93;0.50;;;;;;;;;;21033233;28;20211;-71
2023/08/01 15:43:40;;;;;;;0.90;0.43;;;;;;;;;;21005665;28;20220;-71
2023/08/01 15:53:42;;;;;;;1.33;0.50;;;;;;;;;;20997459;28;20205;-70
2023/08/01 16:03:44;;;;;;;1.25;0.50;;;;;;;;;;20996208;28;20566;-70
2023/08/01 16:13:46;;;;;;;2.03;0.43;;;;;;;;;;20992938;28;20589;-72
2023/08/01 16:23:47;;;;;;;0.47;0.30;;;;;;;;;;20970542;28;20221;-73
2023/08/01 16:33:49;;;;;;;1.02;0.60;;;;;;;;;;20997423;28;20212;-71
2023/08/01 16:43:51;;;;;;;1.25;0.50;;;;;;;;;;20998408;28;20222;-71
2023/08/01 16:53:53;;;;;;;1.27;0.50;;;;;;;;;;20959380;28;21010;-71
2023/08/01 17:03:55;;;;;;;2.25;0.40;;;;;;;;;;21043458;28;20766;-72
2023/08/01 17:13:57;;;;;;;1.17;0.60;;;;;;;;;;21057753;28;20798;-71
2023/08/01 17:23:59;;;;;;;2.70;0.70;;;;;;;;;;21059732;28;20286;-74
2023/08/01 17:34:01;;;;;;;0.73;0.57;;;;;;;;;;21040986;28;20294;-72
2023/08/01 17:44:03;;;;;;;0.60;0.50;;;;;;;;;;21023164;28;20223;-73
2023/08/01 17:54:05;;;;;;;0.45;0.40;;;;;;;;;;21020313;28;20223;-74
2023/08/01 18:04:07;;;;;;;2.28;1.00;;;;;;;;;;20999624;28;20228;-73
2023/08/01 18:14:10;;;;;;;1.13;0.63;;;;;;;;;;21000811;28;20258;-73
2023/08/01 18:24:12;;;;;;;1.23;0.73;;;;;;;;;;20986522;28;20224;-73
2023/08/01 18:34:13;;;;;;;2.03;0.73;;;;;;;;;;20994411;28;20630;-74
2023/08/01 18:44:15;;;;;;;0.70;0.60;;;;;;;;;;20965507;28;20217;-74
2023/08/01 18:54:17;;;;;;;1.63;0.70;;;;;;;;;;20998328;28;20235;-72
2023/08/01 19:04:19;;;;;;;1.00;0.40;;;;;;;;;;20983027;28;20255;-73
2023/08/01 19:14:20;;;;;;;1.05;0.43;;;;;;;;;;20980729;28;20227;-75
2023/08/01 19:24:22;;;;;;;0.70;0.50;;;;;;;;;;20980062;28;20764;-73
2023/08/01 19:34:24;;;;;;;0.65;0.32;;;;;;;;;;21002913;28;20233;-73
2023/08/01 19:44:27;;;;;;;1.60;0.70;;;21.40;99.90;;;;;;20964749;28;20705;-73
2023/08/01 19:54:29;;;;;;;1.80;0.57;;;;;;;;;;20973729;28;20614;-73
2023/08/01 20:04:31;;;;;;;1.03;0.60;;;;;;;;;;20995984;28;20227;-74
2023/08/01 20:14:32;;;;;;;1.42;0.55;;;;;;;;;;20973151;28;20239;-74
2023/08/01 20:24:35;;;;;;;0.93;0.63;;;;;;;;;;20993860;28;20284;-73
2023/08/01 20:34:37;;;;;;;0.80;0.53;;;;;;;;;;20960119;28;20280;-73
2023/08/01 20:44:39;;;;;;;0.87;0.60;;;;;;;;;;20976773;28;20236;-74
2023/08/01 20:54:41;;;;;;;0.87;0.53;;;;;;;;;;20972464;28;20241;-73
2023/08/01 21:04:42;;;;;;;1.13;0.60;;;;;;;;;;20978712;28;20254;-73
2023/08/01 21:14:44;;;;;;;0.70;0.47;;;;;;;;;;20981479;28;20254;-73
2023/08/01 21:24:46;;;;;;;0.80;0.50;;;;;;;;;;20963722;28;20222;-72
2023/08/01 21:34:47;;;;;;;1.67;0.50;;;;;;;;;;20982579;28;20271;-72
2023/08/01 21:44:49;;;;;;;0.73;0.50;;;;;;;;;;20993332;22;20291;-70
2023/08/01 21:54:51;;;;;;;0.77;0.50;;;;;;;;;;20813285;28;20237;-69
2023/08/01 22:04:54;;;;;;;0.57;0.40;;;19.70;99.90;;;;;;20764371;28;20223;-70
2023/08/01 22:14:56;;;;;;;1.33;0.67;;;;;;;;;;20778313;28;20299;-70
2023/08/01 22:24:58;;;;;;;0.80;0.60;;;;;;;;;;20712930;28;20618;-69
2023/08/01 22:35:00;;;;;;;2.20;0.67;;;;;;;;;;20779473;28;20216;-69
2023/08/01 22:45:03;;;;;;;1.20;0.60;;;;;;;;;;20797866;28;20282;-70
2023/08/01 22:55:06;;;;;;;1.20;0.50;;;;;;;;;;20826890;28;20232;-70
2023/08/01 23:05:08;;;;;;;1.70;0.40;;;;;;;;;;20838230;28;20741;-70
2023/08/01 23:15:10;;;;;;;0.67;0.40;;;;;;;;;;20825373;28;20281;-70
2023/08/01 23:25:13;;;;;;;1.43;0.50;;;;;;;;;;20789797;28;20227;-70
2023/08/01 23:35:14;;;;;;;0.67;0.43;;;;;;;;;;20803953;28;20217;-70
2023/08/01 23:45:17;;;;;;;0.70;0.60;;;;;;;;;;20787596;28;20241;-71
2023/08/01 23:55:19;;;;;;;0.83;0.40;;;;;;;;;;20810706;28;20289;-70
